This is the latest recevied weather packets stored in our database for station/object WW5JC. If no packets are shown the sender has not sent any weather packets the latest 1 day(s).
| Time | Temp. | Humidity | Pressure | Rain* | Wind** | Luminosity | Snow |
|---|---|---|---|---|---|---|---|
| 1778092093 | 13.33° C | 99% | 1015.6 hPa | 0 mm | - | 186 W/m² | - |
| 1778091482 | 12.78° C | 99% | 1015.5 hPa | 0 mm | - | 147 W/m² | - |
| 1778090876 | 12.78° C | 99% | 1015.9 hPa | 0 mm | - | 120 W/m² | - |
| 1778090268 | 12.78° C | 99% | 1017 hPa | 0 mm | - | 83 W/m² | - |
| 1778089965 | 12.78° C | 99% | 1017.2 hPa | 0 mm | - | 64 W/m² | - |
| 1778089058 | 12.78° C | 99% | 1016 hPa | 0 mm | - | 68 W/m² | - |
| 1778088451 | 12.78° C | 99% | 1015.8 hPa | 0 mm | - | 88 W/m² | - |
| 1778086936 | 12.22° C | 99% | 1015.9 hPa | 0 mm | - | 156 W/m² | - |
| 1778086028 | 12.22° C | 98% | 1020 hPa | 0 mm | - | 7 W/m² | - |
| 1778084813 | 12.22° C | 96% | 1016.7 hPa | 0 mm | - | 28 W/m² | - |
| 1778083904 | 12.78° C | 94% | 1016.7 hPa | 0 mm | - | 38 W/m² | - |
| 1778083602 | 12.78° C | 94% | 1016.5 hPa | 0 mm | - | 51 W/m² | - |
| 1778083299 | 12.78° C | 94% | 1016.6 hPa | 0 mm | - | 42 W/m² | - |
| 1778082694 | 12.78° C | 92% | 1016.9 hPa | 0 mm | - | 44 W/m² | - |
| 1778081556 | 12.78° C | 92% | 1016.6 hPa | 0 mm | - | 48 W/m² | - |
| 1778081253 | 12.78° C | 92% | 1016.6 hPa | 0 mm | - | 41 W/m² | - |
| 1778080345 | 12.78° C | 92% | 1016.5 hPa | 0 mm | - | 68 W/m² | - |
| 1778079739 | 12.78° C | 91% | 1016.1 hPa | 0 mm | - | 69 W/m² | - |
| 1778078830 | 12.78° C | 91% | 1015.7 hPa | 0 mm | - | 57 W/m² | - |
| 1778077318 | 12.22° C | 91% | 1015.3 hPa | 0 mm | - | 91 W/m² | - |
| 1778076411 | 12.22° C | 91% | 1015.1 hPa | 0 mm | - | 71 W/m² | - |
| 1778076108 | 12.22° C | 91% | 1015.2 hPa | 0 mm | - | 76 W/m² | - |
| 1778075501 | 12.22° C | 91% | 1015.1 hPa | 0 mm | - | 47 W/m² | - |
| 1778074591 | 12.22° C | 91% | 1015 hPa | 0 mm | - | 54 W/m² | - |
| 1778074288 | 12.22° C | 91% | 1015.3 hPa | 0 mm | - | 37 W/m² | - |
* Rain latest hour (hover to see other rain measurements)
** Current wind speed in m/s (hover to see current wind gust speed)